HAZ9205 ZSHC-ZGGG
Flight info
| Callsign | HAZ9205 |
|---|---|
| Flight time | 1h 36m |
| Altitude | 40100 |
| Route | ELNEX5E ELNEX A599 PLT W19 OLPAB OLPAB8 |
| Aircraft | A359/H-SDE2E3GHIJ3J4J5LM1ORWXY/LB1D1 |
Departure
| Time | 2026-05-08 15:07 |
|---|---|
| Airport | Hangzhou Xiaoshan International Airport (ZSHC) |
Arrival
| Time | 2026-05-08 16:43 |
|---|---|
| Airport | Guangzhou Baiyun International Airport (ZGGG) |
| Time | Latitude | Longitude | Altitude | Speed | Heading |
|---|---|---|---|---|---|
| 2026-05-08 14:35 | 30.23412 | 120.43458 | 40 ft | 0 kts | 34° |
| 2026-05-08 14:58 | 30.23400 | 120.43449 | 34 ft | 4 kts | 34° |
| 2026-05-08 14:58 | 30.23378 | 120.43431 | 35 ft | 4 kts | 34° |
| 2026-05-08 14:58 | 30.23357 | 120.43417 | 36 ft | 4 kts | 13° |
| 2026-05-08 14:58 | 30.23336 | 120.43419 | 35 ft | 4 kts | 308° |
| 2026-05-08 14:59 | 30.23328 | 120.43446 | 38 ft | 4 kts | 270° |
| 2026-05-08 14:59 | 30.23332 | 120.43477 | 37 ft | 0 kts | 243° |
| 2026-05-08 15:01 | 30.23315 | 120.43439 | 32 ft | 13 kts | 243° |
| 2026-05-08 15:02 | 30.23252 | 120.43296 | 38 ft | 24 kts | 243° |
| 2026-05-08 15:02 | 30.23175 | 120.43124 | 38 ft | 24 kts | 243° |
| 2026-05-08 15:02 | 30.23097 | 120.42954 | 38 ft | 22 kts | 234° |
| 2026-05-08 15:02 | 30.23019 | 120.42915 | 38 ft | 11 kts | 199° |
| 2026-05-08 15:03 | 30.22956 | 120.42810 | 38 ft | 23 kts | 242° |
| 2026-05-08 15:03 | 30.22878 | 120.42637 | 38 ft | 25 kts | 243° |
| 2026-05-08 15:03 | 30.22801 | 120.42462 | 38 ft | 24 kts | 243° |
| 2026-05-08 15:03 | 30.22701 | 120.42329 | 38 ft | 22 kts | 189° |
| 2026-05-08 15:04 | 30.22603 | 120.42225 | 38 ft | 20 kts | 243° |
| 2026-05-08 15:04 | 30.22540 | 120.42085 | 38 ft | 21 kts | 244° |
| 2026-05-08 15:04 | 30.22474 | 120.41930 | 38 ft | 22 kts | 243° |
| 2026-05-08 15:04 | 30.22402 | 120.41769 | 38 ft | 23 kts | 240° |
| 2026-05-08 15:05 | 30.22336 | 120.41727 | 38 ft | 8 kts | 172° |
| 2026-05-08 15:05 | 30.22261 | 120.41766 | 37 ft | 14 kts | 147° |
| 2026-05-08 15:05 | 30.22246 | 120.41846 | 36 ft | 9 kts | 67° |
| 2026-05-08 15:05 | 30.22255 | 120.41868 | 36 ft | 0 kts | 63° |
| 2026-05-08 15:06 | 30.22274 | 120.41910 | 37 ft | 28 kts | 63° |
| 2026-05-08 15:06 | 30.22473 | 120.42361 | 39 ft | 97 kts | 63° |
| 2026-05-08 15:07 | 30.22866 | 120.43252 | 41 ft | 154 kts | 64° |
| 2026-05-08 15:07 | 30.23373 | 120.44436 | 521 ft | 167 kts | 65° |
| 2026-05-08 15:07 | 30.23876 | 120.45597 | 1359 ft | 158 kts | 66° |
| 2026-05-08 15:07 | 30.23967 | 120.46891 | 1775 ft | 173 kts | 103° |
| 2026-05-08 15:08 | 30.23700 | 120.48344 | 2133 ft | 194 kts | 102° |
| 2026-05-08 15:08 | 30.23548 | 120.49377 | 2517 ft | 199 kts | 100° |
| 2026-05-08 15:08 | 30.23320 | 120.51515 | 3407 ft | 202 kts | 98° |
| 2026-05-08 15:08 | 30.23174 | 120.53194 | 3847 ft | 221 kts | 97° |
| 2026-05-08 15:09 | 30.23022 | 120.55044 | 4250 ft | 239 kts | 98° |
| 2026-05-08 15:09 | 30.22568 | 120.56875 | 4928 ft | 244 kts | 120° |
| 2026-05-08 15:09 | 30.21363 | 120.58288 | 5682 ft | 249 kts | 147° |
| 2026-05-08 15:09 | 30.19832 | 120.59224 | 6444 ft | 255 kts | 152° |
| 2026-05-08 15:10 | 30.18206 | 120.60083 | 7168 ft | 263 kts | 158° |
| 2026-05-08 15:10 | 30.16370 | 120.60414 | 7856 ft | 273 kts | 182° |
| 2026-05-08 15:10 | 30.14543 | 120.59778 | 8625 ft | 281 kts | 210° |
| 2026-05-08 15:10 | 30.13112 | 120.58235 | 9460 ft | 284 kts | 238° |
| 2026-05-08 15:11 | 30.12266 | 120.56186 | 10334 ft | 284 kts | 248° |
| 2026-05-08 15:11 | 30.11420 | 120.54111 | 11122 ft | 287 kts | 245° |
| 2026-05-08 15:11 | 30.10520 | 120.52035 | 11888 ft | 291 kts | 245° |
| 2026-05-08 15:11 | 30.09601 | 120.49941 | 12675 ft | 294 kts | 246° |
| 2026-05-08 15:12 | 30.08681 | 120.47857 | 13467 ft | 297 kts | 246° |
| 2026-05-08 15:12 | 30.07737 | 120.45727 | 14224 ft | 300 kts | 246° |
| 2026-05-08 15:12 | 30.06784 | 120.43579 | 14978 ft | 300 kts | 246° |
| 2026-05-08 15:12 | 30.05833 | 120.41439 | 15755 ft | 299 kts | 246° |
| 2026-05-08 15:13 | 30.04884 | 120.39307 | 16527 ft | 299 kts | 245° |
| 2026-05-08 15:13 | 30.03916 | 120.37143 | 17012 ft | 310 kts | 245° |
| 2026-05-08 15:13 | 30.02906 | 120.34879 | 17341 ft | 324 kts | 245° |
| 2026-05-08 15:13 | 30.01852 | 120.32516 | 17688 ft | 338 kts | 245° |
| 2026-05-08 15:14 | 30.00755 | 120.30057 | 18027 ft | 351 kts | 245° |
| 2026-05-08 15:14 | 29.99624 | 120.27527 | 18421 ft | 360 kts | 245° |
| 2026-05-08 15:14 | 29.98453 | 120.24973 | 18819 ft | 368 kts | 243° |
| 2026-05-08 15:14 | 29.97215 | 120.22370 | 19304 ft | 372 kts | 243° |
| 2026-05-08 15:15 | 29.95964 | 120.19745 | 19829 ft | 375 kts | 243° |
| 2026-05-08 15:15 | 29.94699 | 120.17084 | 20315 ft | 380 kts | 243° |
| 2026-05-08 15:15 | 29.93424 | 120.14406 | 20800 ft | 383 kts | 243° |
| 2026-05-08 15:15 | 29.92141 | 120.11702 | 21346 ft | 385 kts | 243° |
| 2026-05-08 15:16 | 29.90859 | 120.09001 | 21932 ft | 385 kts | 243° |
| 2026-05-08 15:16 | 29.89573 | 120.06292 | 22496 ft | 386 kts | 243° |
| 2026-05-08 15:16 | 29.88295 | 120.03602 | 23002 ft | 389 kts | 243° |
| 2026-05-08 15:16 | 29.86991 | 120.00858 | 23508 ft | 392 kts | 243° |
| 2026-05-08 15:17 | 29.85666 | 119.98093 | 23983 ft | 394 kts | 242° |
| 2026-05-08 15:17 | 29.84144 | 119.95456 | 24474 ft | 397 kts | 235° |
| 2026-05-08 15:17 | 29.82423 | 119.92958 | 24931 ft | 399 kts | 233° |
| 2026-05-08 15:17 | 29.80668 | 119.90475 | 25395 ft | 400 kts | 233° |
| 2026-05-08 15:18 | 29.78903 | 119.87983 | 25809 ft | 403 kts | 234° |
| 2026-05-08 15:18 | 29.77129 | 119.85462 | 26174 ft | 408 kts | 233° |
| 2026-05-08 15:18 | 29.75353 | 119.82940 | 26562 ft | 412 kts | 233° |
| 2026-05-08 15:18 | 29.73552 | 119.80381 | 27104 ft | 412 kts | 234° |
| 2026-05-08 15:19 | 29.71751 | 119.77820 | 27629 ft | 413 kts | 234° |
| 2026-05-08 15:19 | 29.69942 | 119.75248 | 28077 ft | 415 kts | 234° |
| 2026-05-08 15:19 | 29.68113 | 119.72655 | 28483 ft | 418 kts | 234° |
| 2026-05-08 15:19 | 29.66319 | 119.70023 | 28920 ft | 419 kts | 237° |
| 2026-05-08 15:20 | 29.64812 | 119.67161 | 29361 ft | 418 kts | 245° |
| 2026-05-08 15:20 | 29.63726 | 119.64062 | 29780 ft | 419 kts | 253° |
| 2026-05-08 15:20 | 29.63094 | 119.60782 | 30162 ft | 422 kts | 262° |
| 2026-05-08 15:20 | 29.62909 | 119.57449 | 30533 ft | 424 kts | 267° |
| 2026-05-08 15:21 | 29.62744 | 119.54055 | 30835 ft | 427 kts | 263° |
| 2026-05-08 15:21 | 29.62198 | 119.50693 | 31085 ft | 429 kts | 255° |
| 2026-05-08 15:21 | 29.61197 | 119.47456 | 31393 ft | 433 kts | 248° |
| 2026-05-08 15:21 | 29.59746 | 119.44401 | 31697 ft | 438 kts | 240° |
| 2026-05-08 15:22 | 29.57872 | 119.41611 | 31996 ft | 445 kts | 232° |
| 2026-05-08 15:22 | 29.55679 | 119.39070 | 32301 ft | 449 kts | 229° |
| 2026-05-08 15:22 | 29.53406 | 119.36600 | 32577 ft | 451 kts | 228° |
| 2026-05-08 15:22 | 29.51199 | 119.34045 | 32859 ft | 451 kts | 232° |
| 2026-05-08 15:23 | 29.49091 | 119.31379 | 33133 ft | 452 kts | 233° |
| 2026-05-08 15:23 | 29.47044 | 119.28696 | 33409 ft | 453 kts | 234° |
| 2026-05-08 15:23 | 29.44975 | 119.25971 | 33781 ft | 452 kts | 234° |
| 2026-05-08 15:23 | 29.42901 | 119.23267 | 34189 ft | 449 kts | 235° |
| 2026-05-08 15:24 | 29.40834 | 119.20608 | 34726 ft | 444 kts | 235° |
| 2026-05-08 15:24 | 29.38775 | 119.17982 | 35117 ft | 442 kts | 235° |
| 2026-05-08 15:24 | 29.36726 | 119.15378 | 35451 ft | 440 kts | 235° |
| 2026-05-08 15:24 | 29.34667 | 119.12772 | 35761 ft | 439 kts | 235° |
| 2026-05-08 15:25 | 29.32646 | 119.10224 | 36078 ft | 438 kts | 235° |
| 2026-05-08 15:25 | 29.30604 | 119.07650 | 36374 ft | 436 kts | 236° |
| 2026-05-08 15:25 | 29.28563 | 119.05074 | 36691 ft | 434 kts | 236° |
| 2026-05-08 15:25 | 29.26539 | 119.02519 | 37017 ft | 432 kts | 236° |
| 2026-05-08 15:26 | 29.24518 | 118.99969 | 37264 ft | 432 kts | 236° |
| 2026-05-08 15:26 | 29.22500 | 118.97422 | 37307 ft | 433 kts | 236° |
| 2026-05-08 15:26 | 29.18441 | 118.92322 | 37327 ft | 432 kts | 236° |
| 2026-05-08 15:27 | 29.14391 | 118.87235 | 37323 ft | 432 kts | 236° |
| 2026-05-08 15:27 | 29.10368 | 118.82190 | 37300 ft | 432 kts | 236° |
| 2026-05-08 15:28 | 29.06308 | 118.77108 | 37273 ft | 433 kts | 235° |
| 2026-05-08 15:28 | 29.02244 | 118.72045 | 37291 ft | 433 kts | 236° |
| 2026-05-08 15:29 | 28.98195 | 118.66948 | 37297 ft | 434 kts | 236° |
| 2026-05-08 15:29 | 28.94143 | 118.61897 | 37295 ft | 433 kts | 236° |
| 2026-05-08 15:30 | 28.90067 | 118.56829 | 37291 ft | 433 kts | 236° |
| 2026-05-08 15:30 | 28.85995 | 118.51764 | 37290 ft | 433 kts | 236° |
| 2026-05-08 15:31 | 28.81924 | 118.46698 | 37271 ft | 434 kts | 236° |
| 2026-05-08 15:31 | 28.77870 | 118.41656 | 37281 ft | 435 kts | 236° |
| 2026-05-08 15:32 | 28.73767 | 118.36580 | 37282 ft | 435 kts | 236° |
| 2026-05-08 15:32 | 28.69676 | 118.31522 | 37278 ft | 434 kts | 236° |
| 2026-05-08 15:33 | 28.65582 | 118.26460 | 37277 ft | 434 kts | 236° |
| 2026-05-08 15:33 | 28.61519 | 118.21441 | 37270 ft | 435 kts | 235° |
| 2026-05-08 15:34 | 28.57415 | 118.16375 | 37269 ft | 436 kts | 235° |
| 2026-05-08 15:34 | 28.53296 | 118.11302 | 37269 ft | 436 kts | 235° |
| 2026-05-08 15:35 | 28.49176 | 118.06233 | 37263 ft | 436 kts | 235° |
| 2026-05-08 15:35 | 28.45086 | 118.01206 | 37261 ft | 436 kts | 235° |
| 2026-05-08 15:36 | 28.40970 | 117.96155 | 37267 ft | 437 kts | 235° |
| 2026-05-08 15:36 | 28.36762 | 117.91142 | 37265 ft | 439 kts | 234° |
| 2026-05-08 15:37 | 28.32510 | 117.86161 | 37263 ft | 439 kts | 234° |
| 2026-05-08 15:37 | 28.28295 | 117.81213 | 37260 ft | 439 kts | 234° |
| 2026-05-08 15:38 | 28.24058 | 117.76227 | 37261 ft | 439 kts | 234° |
| 2026-05-08 15:38 | 28.19827 | 117.71247 | 37259 ft | 439 kts | 234° |
| 2026-05-08 15:39 | 28.15593 | 117.66269 | 37257 ft | 439 kts | 234° |
| 2026-05-08 15:39 | 28.11377 | 117.61319 | 37257 ft | 439 kts | 234° |
| 2026-05-08 15:40 | 28.07136 | 117.56347 | 37254 ft | 439 kts | 234° |
| 2026-05-08 15:40 | 28.02893 | 117.51387 | 37251 ft | 439 kts | 234° |
| 2026-05-08 15:41 | 27.98630 | 117.46394 | 37247 ft | 441 kts | 234° |
| 2026-05-08 15:41 | 27.94386 | 117.41429 | 37245 ft | 442 kts | 233° |
| 2026-05-08 15:42 | 27.90116 | 117.36440 | 37244 ft | 442 kts | 234° |
| 2026-05-08 15:42 | 27.85836 | 117.31448 | 37241 ft | 441 kts | 234° |
| 2026-05-08 15:43 | 27.81563 | 117.26475 | 37241 ft | 441 kts | 233° |
| 2026-05-08 15:43 | 27.77283 | 117.21494 | 37236 ft | 444 kts | 233° |
| 2026-05-08 15:44 | 27.72994 | 117.16511 | 37246 ft | 446 kts | 233° |
| 2026-05-08 15:44 | 27.68671 | 117.11503 | 37235 ft | 445 kts | 233° |
| 2026-05-08 15:45 | 27.64362 | 117.06509 | 37231 ft | 444 kts | 233° |
| 2026-05-08 15:45 | 27.60055 | 117.01522 | 37229 ft | 444 kts | 233° |
| 2026-05-08 15:46 | 27.55771 | 116.96568 | 37234 ft | 446 kts | 233° |
| 2026-05-08 15:46 | 27.51431 | 116.91558 | 37228 ft | 447 kts | 233° |
| 2026-05-08 15:47 | 27.47107 | 116.86531 | 37241 ft | 446 kts | 233° |
| 2026-05-08 15:47 | 27.42823 | 116.81496 | 37232 ft | 445 kts | 233° |
| 2026-05-08 15:48 | 27.36417 | 116.73989 | 37224 ft | 445 kts | 233° |
| 2026-05-08 15:49 | 27.32105 | 116.68956 | 37230 ft | 447 kts | 233° |
| 2026-05-08 15:49 | 27.27779 | 116.63921 | 37234 ft | 448 kts | 233° |
| 2026-05-08 15:50 | 27.23481 | 116.58928 | 37229 ft | 447 kts | 233° |
| 2026-05-08 15:50 | 27.19165 | 116.53899 | 37231 ft | 447 kts | 234° |
| 2026-05-08 15:51 | 27.14943 | 116.48790 | 37221 ft | 445 kts | 234° |
| 2026-05-08 15:51 | 27.10758 | 116.43660 | 37229 ft | 447 kts | 234° |
| 2026-05-08 15:52 | 27.06534 | 116.38526 | 37224 ft | 447 kts | 234° |
| 2026-05-08 15:52 | 27.02334 | 116.33451 | 37226 ft | 448 kts | 234° |
| 2026-05-08 15:53 | 26.98092 | 116.28338 | 37220 ft | 448 kts | 234° |
| 2026-05-08 15:53 | 26.93845 | 116.23223 | 37205 ft | 447 kts | 234° |
| 2026-05-08 15:54 | 26.89607 | 116.18108 | 37215 ft | 448 kts | 234° |
| 2026-05-08 15:54 | 26.85410 | 116.12995 | 37214 ft | 449 kts | 234° |
| 2026-05-08 15:55 | 26.81195 | 116.07853 | 37208 ft | 449 kts | 234° |
| 2026-05-08 15:55 | 26.74852 | 116.00142 | 37218 ft | 449 kts | 234° |
| 2026-05-08 15:56 | 26.70618 | 115.95006 | 37210 ft | 450 kts | 234° |
| 2026-05-08 15:56 | 26.66390 | 115.89883 | 37213 ft | 451 kts | 234° |
| 2026-05-08 15:57 | 26.62147 | 115.84751 | 37210 ft | 451 kts | 234° |
| 2026-05-08 15:57 | 26.57884 | 115.79601 | 37209 ft | 451 kts | 233° |
| 2026-05-08 15:58 | 26.53608 | 115.74439 | 37211 ft | 451 kts | 233° |
| 2026-05-08 15:58 | 26.49373 | 115.69332 | 37188 ft | 451 kts | 233° |
| 2026-05-08 15:59 | 26.45100 | 115.64186 | 37208 ft | 453 kts | 233° |
| 2026-05-08 15:59 | 26.40815 | 115.59035 | 37219 ft | 453 kts | 233° |
| 2026-05-08 16:00 | 26.36532 | 115.53883 | 37208 ft | 453 kts | 233° |
| 2026-05-08 16:00 | 26.32266 | 115.48767 | 37213 ft | 453 kts | 233° |
| 2026-05-08 16:01 | 26.27976 | 115.43626 | 37214 ft | 453 kts | 233° |
| 2026-05-08 16:01 | 26.23677 | 115.38477 | 37211 ft | 454 kts | 233° |
| 2026-05-08 16:02 | 26.19365 | 115.33320 | 37212 ft | 455 kts | 233° |
| 2026-05-08 16:02 | 26.15079 | 115.28202 | 37204 ft | 454 kts | 233° |
| 2026-05-08 16:03 | 26.10776 | 115.23071 | 37213 ft | 454 kts | 233° |
| 2026-05-08 16:03 | 26.06466 | 115.17935 | 37209 ft | 454 kts | 233° |
| 2026-05-08 16:04 | 26.02156 | 115.12803 | 37215 ft | 454 kts | 233° |
| 2026-05-08 16:04 | 25.97844 | 115.07676 | 37213 ft | 454 kts | 233° |
| 2026-05-08 16:05 | 25.93559 | 115.02588 | 37217 ft | 454 kts | 233° |
| 2026-05-08 16:05 | 25.89239 | 114.97465 | 37216 ft | 453 kts | 233° |
| 2026-05-08 16:06 | 25.84916 | 114.92383 | 37213 ft | 454 kts | 231° |
| 2026-05-08 16:06 | 25.79840 | 114.88138 | 37216 ft | 470 kts | 215° |
| 2026-05-08 16:07 | 25.73582 | 114.85610 | 37197 ft | 487 kts | 201° |
| 2026-05-08 16:07 | 25.66945 | 114.83935 | 37201 ft | 490 kts | 199° |
| 2026-05-08 16:08 | 25.60282 | 114.82357 | 37198 ft | 490 kts | 200° |
| 2026-05-08 16:08 | 25.53622 | 114.80744 | 37198 ft | 490 kts | 200° |
| 2026-05-08 16:09 | 25.48083 | 114.79378 | 37203 ft | 490 kts | 200° |
| 2026-05-08 16:09 | 25.40353 | 114.77463 | 37208 ft | 490 kts | 200° |
| 2026-05-08 16:10 | 25.33690 | 114.75814 | 37205 ft | 490 kts | 200° |
| 2026-05-08 16:10 | 25.27039 | 114.74172 | 37190 ft | 490 kts | 200° |
| 2026-05-08 16:11 | 25.20405 | 114.72536 | 37202 ft | 492 kts | 200° |
| 2026-05-08 16:11 | 25.13730 | 114.70892 | 37202 ft | 492 kts | 200° |
| 2026-05-08 16:12 | 25.07053 | 114.69250 | 37203 ft | 492 kts | 200° |
| 2026-05-08 16:12 | 25.00378 | 114.67610 | 37186 ft | 492 kts | 200° |
| 2026-05-08 16:13 | 24.93730 | 114.65979 | 37200 ft | 493 kts | 200° |
| 2026-05-08 16:13 | 24.87032 | 114.64335 | 37199 ft | 493 kts | 200° |
| 2026-05-08 16:14 | 24.80343 | 114.62695 | 37201 ft | 493 kts | 200° |
| 2026-05-08 16:14 | 24.77014 | 114.61881 | 36982 ft | 486 kts | 200° |
| 2026-05-08 16:14 | 24.73735 | 114.61079 | 36423 ft | 483 kts | 200° |
| 2026-05-08 16:15 | 24.70532 | 114.60049 | 35771 ft | 474 kts | 208° |
| 2026-05-08 16:15 | 24.67555 | 114.58549 | 35087 ft | 468 kts | 215° |
| 2026-05-08 16:15 | 24.64734 | 114.56865 | 34381 ft | 468 kts | 216° |
| 2026-05-08 16:15 | 24.61900 | 114.55095 | 33560 ft | 470 kts | 217° |
| 2026-05-08 16:16 | 24.59067 | 114.53288 | 32774 ft | 471 kts | 217° |
| 2026-05-08 16:16 | 24.56233 | 114.51475 | 31995 ft | 473 kts | 217° |
| 2026-05-08 16:16 | 24.53388 | 114.49659 | 31165 ft | 475 kts | 216° |
| 2026-05-08 16:16 | 24.50525 | 114.47840 | 30474 ft | 474 kts | 216° |
| 2026-05-08 16:17 | 24.47672 | 114.46039 | 29912 ft | 471 kts | 216° |
| 2026-05-08 16:17 | 24.45799 | 114.44859 | 29492 ft | 468 kts | 215° |
| 2026-05-08 16:17 | 24.42047 | 114.42501 | 28763 ft | 462 kts | 215° |
| 2026-05-08 16:17 | 24.39301 | 114.40781 | 28187 ft | 458 kts | 215° |
| 2026-05-08 16:18 | 24.36510 | 114.39032 | 27589 ft | 455 kts | 215° |
| 2026-05-08 16:18 | 24.33812 | 114.37340 | 27040 ft | 451 kts | 215° |
| 2026-05-08 16:18 | 24.31094 | 114.35635 | 26480 ft | 448 kts | 216° |
| 2026-05-08 16:18 | 24.28400 | 114.33944 | 25914 ft | 445 kts | 215° |
| 2026-05-08 16:19 | 24.25718 | 114.32261 | 25356 ft | 443 kts | 215° |
| 2026-05-08 16:19 | 24.23055 | 114.30594 | 24812 ft | 440 kts | 215° |
| 2026-05-08 16:19 | 24.20395 | 114.28930 | 24239 ft | 439 kts | 215° |
| 2026-05-08 16:19 | 24.17751 | 114.27279 | 23690 ft | 437 kts | 214° |
| 2026-05-08 16:20 | 24.15145 | 114.25648 | 23054 ft | 435 kts | 214° |
| 2026-05-08 16:20 | 24.12526 | 114.24013 | 22472 ft | 432 kts | 214° |
| 2026-05-08 16:20 | 24.09933 | 114.22380 | 21889 ft | 428 kts | 215° |
| 2026-05-08 16:20 | 24.07604 | 114.20430 | 21315 ft | 418 kts | 229° |
| 2026-05-08 16:21 | 24.05674 | 114.18082 | 20756 ft | 412 kts | 232° |
| 2026-05-08 16:21 | 24.03817 | 114.15696 | 20195 ft | 410 kts | 232° |
| 2026-05-08 16:21 | 24.01973 | 114.13337 | 19627 ft | 407 kts | 232° |
| 2026-05-08 16:21 | 24.00137 | 114.10998 | 19055 ft | 404 kts | 231° |
| 2026-05-08 16:22 | 23.98335 | 114.08708 | 18500 ft | 402 kts | 231° |
| 2026-05-08 16:22 | 23.96517 | 114.06401 | 17890 ft | 399 kts | 231° |
| 2026-05-08 16:22 | 23.94721 | 114.04115 | 17274 ft | 395 kts | 231° |
| 2026-05-08 16:22 | 23.92952 | 114.01829 | 16672 ft | 391 kts | 231° |
| 2026-05-08 16:23 | 23.91211 | 113.99575 | 16102 ft | 387 kts | 231° |
| 2026-05-08 16:23 | 23.89475 | 113.97335 | 15511 ft | 384 kts | 231° |
| 2026-05-08 16:23 | 23.87750 | 113.95114 | 14926 ft | 381 kts | 231° |
| 2026-05-08 16:23 | 23.86035 | 113.92910 | 14344 ft | 379 kts | 231° |
| 2026-05-08 16:24 | 23.84335 | 113.90726 | 13749 ft | 377 kts | 231° |
| 2026-05-08 16:24 | 23.82642 | 113.88552 | 13126 ft | 374 kts | 231° |
| 2026-05-08 16:24 | 23.80973 | 113.86444 | 12647 ft | 367 kts | 230° |
| 2026-05-08 16:24 | 23.79302 | 113.84348 | 12558 ft | 369 kts | 230° |
| 2026-05-08 16:25 | 23.77611 | 113.82223 | 12436 ft | 370 kts | 230° |
| 2026-05-08 16:25 | 23.75927 | 113.80106 | 12289 ft | 370 kts | 230° |
| 2026-05-08 16:25 | 23.74234 | 113.77981 | 12107 ft | 369 kts | 231° |
| 2026-05-08 16:25 | 23.72559 | 113.75875 | 11964 ft | 368 kts | 230° |
| 2026-05-08 16:26 | 23.70875 | 113.73761 | 11807 ft | 369 kts | 230° |
| 2026-05-08 16:26 | 23.69193 | 113.71650 | 11632 ft | 370 kts | 230° |
| 2026-05-08 16:26 | 23.67497 | 113.69525 | 11485 ft | 370 kts | 230° |
| 2026-05-08 16:26 | 23.65884 | 113.67503 | 11327 ft | 369 kts | 230° |
| 2026-05-08 16:27 | 23.64985 | 113.66378 | 11266 ft | 369 kts | 230° |
| 2026-05-08 16:27 | 23.63930 | 113.65055 | 11166 ft | 368 kts | 230° |
| 2026-05-08 16:27 | 23.62313 | 113.63031 | 11016 ft | 367 kts | 230° |
| 2026-05-08 16:27 | 23.60632 | 113.60927 | 10861 ft | 367 kts | 230° |
| 2026-05-08 16:28 | 23.58806 | 113.58998 | 10693 ft | 368 kts | 217° |
| 2026-05-08 16:28 | 23.56556 | 113.57740 | 10566 ft | 358 kts | 202° |
| 2026-05-08 16:28 | 23.54299 | 113.56855 | 10430 ft | 342 kts | 200° |
| 2026-05-08 16:28 | 23.52101 | 113.56018 | 10294 ft | 327 kts | 200° |
| 2026-05-08 16:29 | 23.50006 | 113.55212 | 10151 ft | 313 kts | 201° |
| 2026-05-08 16:29 | 23.47993 | 113.54434 | 10006 ft | 301 kts | 201° |
| 2026-05-08 16:29 | 23.46061 | 113.53684 | 9893 ft | 290 kts | 201° |
| 2026-05-08 16:29 | 23.44163 | 113.52945 | 9752 ft | 291 kts | 201° |
| 2026-05-08 16:30 | 23.42255 | 113.52202 | 9623 ft | 292 kts | 201° |
| 2026-05-08 16:30 | 23.40342 | 113.51456 | 9515 ft | 292 kts | 201° |
| 2026-05-08 16:30 | 23.38436 | 113.50716 | 9373 ft | 291 kts | 200° |
| 2026-05-08 16:30 | 23.36556 | 113.49989 | 9260 ft | 290 kts | 201° |
| 2026-05-08 16:31 | 23.34656 | 113.49247 | 9130 ft | 290 kts | 201° |
| 2026-05-08 16:31 | 23.32764 | 113.48509 | 9008 ft | 289 kts | 201° |
| 2026-05-08 16:31 | 23.30867 | 113.47769 | 8892 ft | 289 kts | 201° |
| 2026-05-08 16:31 | 23.28972 | 113.47031 | 8771 ft | 288 kts | 200° |
| 2026-05-08 16:32 | 23.27089 | 113.46298 | 8649 ft | 288 kts | 200° |
| 2026-05-08 16:32 | 23.25205 | 113.45566 | 8522 ft | 287 kts | 200° |
| 2026-05-08 16:32 | 23.23319 | 113.44834 | 8418 ft | 287 kts | 200° |
| 2026-05-08 16:32 | 23.21440 | 113.44102 | 8278 ft | 286 kts | 200° |
| 2026-05-08 16:33 | 23.19568 | 113.43375 | 8171 ft | 286 kts | 200° |
| 2026-05-08 16:33 | 23.17716 | 113.42657 | 8063 ft | 286 kts | 200° |
| 2026-05-08 16:33 | 23.15855 | 113.41935 | 7916 ft | 284 kts | 200° |
| 2026-05-08 16:33 | 23.13994 | 113.41218 | 7816 ft | 283 kts | 200° |
| 2026-05-08 16:34 | 23.12149 | 113.40496 | 7689 ft | 281 kts | 200° |
| 2026-05-08 16:34 | 23.10352 | 113.39783 | 7568 ft | 281 kts | 200° |
| 2026-05-08 16:34 | 23.08511 | 113.39055 | 7462 ft | 281 kts | 200° |
| 2026-05-08 16:34 | 23.06677 | 113.38333 | 7343 ft | 281 kts | 200° |
| 2026-05-08 16:35 | 23.04839 | 113.37610 | 7231 ft | 280 kts | 200° |
| 2026-05-08 16:35 | 23.03056 | 113.36842 | 7103 ft | 278 kts | 207° |
| 2026-05-08 16:35 | 23.01564 | 113.35541 | 6996 ft | 277 kts | 232° |
| 2026-05-08 16:35 | 23.00758 | 113.33660 | 6898 ft | 278 kts | 258° |
| 2026-05-08 16:36 | 23.00656 | 113.31569 | 6754 ft | 279 kts | 272° |
| 2026-05-08 16:36 | 23.00763 | 113.29468 | 6485 ft | 279 kts | 272° |
| 2026-05-08 16:36 | 23.00912 | 113.27373 | 6229 ft | 278 kts | 278° |
| 2026-05-08 16:36 | 23.01592 | 113.25414 | 6009 ft | 279 kts | 304° |
| 2026-05-08 16:37 | 23.03031 | 113.24033 | 5779 ft | 280 kts | 333° |
| 2026-05-08 16:37 | 23.04899 | 113.23481 | 5563 ft | 279 kts | 353° |
| 2026-05-08 16:37 | 23.06827 | 113.23302 | 5347 ft | 278 kts | 356° |
| 2026-05-08 16:37 | 23.08732 | 113.23247 | 5134 ft | 277 kts | 5° |
| 2026-05-08 16:38 | 23.10617 | 113.23617 | 4954 ft | 275 kts | 14° |
| 2026-05-08 16:38 | 23.12464 | 113.24125 | 4684 ft | 273 kts | 15° |
| 2026-05-08 16:38 | 23.14291 | 113.24633 | 4403 ft | 267 kts | 15° |
| 2026-05-08 16:38 | 23.16051 | 113.25116 | 4238 ft | 255 kts | 15° |
| 2026-05-08 16:39 | 23.17734 | 113.25575 | 4112 ft | 244 kts | 15° |
| 2026-05-08 16:39 | 23.19337 | 113.26009 | 3987 ft | 233 kts | 15° |
| 2026-05-08 16:39 | 23.20873 | 113.26424 | 3839 ft | 223 kts | 15° |
| 2026-05-08 16:39 | 23.22347 | 113.26821 | 3728 ft | 212 kts | 15° |
| 2026-05-08 16:40 | 23.23720 | 113.27192 | 3643 ft | 200 kts | 16° |
| 2026-05-08 16:40 | 23.25025 | 113.27550 | 3560 ft | 186 kts | 16° |
| 2026-05-08 16:40 | 23.26235 | 113.27877 | 3459 ft | 173 kts | 16° |
| 2026-05-08 16:40 | 23.27375 | 113.28179 | 3224 ft | 167 kts | 16° |
| 2026-05-08 16:41 | 23.28525 | 113.28496 | 2723 ft | 176 kts | 17° |
| 2026-05-08 16:41 | 23.29712 | 113.28812 | 2371 ft | 172 kts | 16° |
| 2026-05-08 16:41 | 23.30934 | 113.29121 | 1601 ft | 190 kts | 14° |
| 2026-05-08 16:42 | 23.33463 | 113.29812 | 771 ft | 177 kts | 14° |
| 2026-05-08 16:42 | 23.34608 | 113.30124 | 526 ft | 163 kts | 14° |
| 2026-05-08 16:42 | 23.35652 | 113.30418 | 314 ft | 148 kts | 13° |
| 2026-05-08 16:42 | 23.36603 | 113.30674 | 165 ft | 137 kts | 13° |
| 2026-05-08 16:43 | 23.37506 | 113.30916 | 58 ft | 132 kts | 14° |
| 2026-05-08 16:43 | 23.38248 | 113.31117 | 56 ft | 87 kts | 14° |
| 2026-05-08 16:43 | 23.38708 | 113.31241 | 56 ft | 41 kts | 14° |
| 2026-05-08 16:43 | 23.38930 | 113.31295 | 56 ft | 30 kts | 7° |
| 2026-05-08 16:44 | 23.39127 | 113.31274 | 56 ft | 27 kts | 347° |
| 2026-05-08 16:44 | 23.39201 | 113.31177 | 60 ft | 7 kts | 251° |
| 2026-05-08 16:44 | 23.39173 | 113.31162 | 62 ft | 5 kts | 192° |
| 2026-05-08 16:44 | 23.39152 | 113.31157 | 58 ft | 0 kts | 192° |
| 2026-05-08 16:45 | 23.39125 | 113.31139 | 57 ft | 5 kts | 231° |
| 2026-05-08 16:45 | 23.39119 | 113.31097 | 59 ft | 5 kts | 281° |
| 2026-05-08 16:45 | 23.39119 | 113.31095 | 56 ft | 0 kts | 282° |
| 2026-05-08 16:48 | 23.39127 | 113.31059 | 58 ft | 14 kts | 282° |
| 2026-05-08 16:48 | 23.39162 | 113.30892 | 62 ft | 18 kts | 283° |
| 2026-05-08 16:48 | 23.39175 | 113.30835 | 57 ft | 0 kts | 283° |
| 2026-05-08 16:49 | 23.39190 | 113.30799 | 55 ft | 8 kts | 316° |
| 2026-05-08 16:50 | 23.39259 | 113.30790 | 60 ft | 13 kts | 12° |
| 2026-05-08 16:50 | 23.39363 | 113.30817 | 60 ft | 16 kts | 13° |
| 2026-05-08 16:50 | 23.39523 | 113.30859 | 57 ft | 19 kts | 13° |
| 2026-05-08 16:50 | 23.39612 | 113.30883 | 59 ft | 20 kts | 13° |
| 2026-05-08 16:51 | 23.39752 | 113.30921 | 55 ft | 22 kts | 14° |
| 2026-05-08 16:51 | 23.39904 | 113.30963 | 57 ft | 23 kts | 14° |
| 2026-05-08 16:51 | 23.40067 | 113.31007 | 58 ft | 25 kts | 14° |
| 2026-05-08 16:51 | 23.40188 | 113.30972 | 56 ft | 17 kts | 296° |
| 2026-05-08 16:52 | 23.40228 | 113.30865 | 55 ft | 15 kts | 323° |
| 2026-05-08 16:52 | 23.40289 | 113.30790 | 57 ft | 14 kts | 284° |
| 2026-05-08 16:52 | 23.40318 | 113.30682 | 55 ft | 18 kts | 287° |
| 2026-05-08 16:52 | 23.40354 | 113.30547 | 60 ft | 19 kts | 284° |
| 2026-05-08 16:53 | 23.40267 | 113.30480 | 57 ft | 0 kts | 162° |
| 2026-05-08 16:53 | 23.40252 | 113.30486 | 55 ft | 4 kts | 161° |
| 2026-05-08 16:54 | 23.40244 | 113.30488 | 56 ft | 1 kts | 161° |
| 2026-05-08 16:54 | 23.40243 | 113.30489 | 57 ft | 0 kts | 161° |